»·PEaware :: N360KA KAXX-KTEX

N360KA :: KAXX-KTEX

FLIGHT INFORMATION

Flight Status: Arrived
Operator: Privately registered:
United States
More flights under this callsign
Pilot: Ian G. (41107)
Aircraft: BEECH AIRCRAFT SUPER KING AIR 350
(B350)
More flights by this aircraft type
Origin: KAXX Angel Fire
United States
Destination: KTEX Telluride Regl
United States
More flights between these airports :: More routes between these airports
Route: ANEKE2 CELAV ALS ETL
File this flight plan on PilotEdge
Remarks: RMK / SIMBRIEF
Altitude:
(Current/Filed)
26,000ft
Speed:
(Current/Filed)
311kts
Departed: 26-Sep-23 09:38 AM
Arrived: 26-Sep-23 10:32 AM
Distance/Time
Traveled:
155nm/0:54
Distance/Time
To Go:
Arrived

Flight Plot

Page will automatically refresh every two minutes.

Flight plan parsing failed; only flown route is shown


Map Options




Map Legend


Flown Route
Filed Route
Departure Airport
Arrival Airport
Navaid (VOR, NDB)
Fix

Horizontal Profiles

Position Reports

Time Latitude Longitude Heading Altitude Ground
Speed
26-Sep-23 09:27 36.420142 -105.291147 271 8358ft 0kts
26-Sep-23 09:28 36.420142 -105.291147 271 8358ft 0kts
26-Sep-23 09:29 36.420142 -105.291147 271 8358ft 0kts
26-Sep-23 09:31 36.420142 -105.291147 271 8358ft 0kts
26-Sep-23 09:31 36.420142 -105.291147 271 8358ft 0kts
26-Sep-23 09:32 36.419520 -105.290780 184 8359ft 3kts
26-Sep-23 09:33 36.423508 -105.290596 0 8357ft 24kts
26-Sep-23 09:34 36.429648 -105.290309 3 8361ft 22kts
26-Sep-23 09:36 36.434384 -105.289920 82 8357ft 0kts
26-Sep-23 09:36 36.434384 -105.289920 82 8357ft 0kts
26-Sep-23 09:37 36.419981 -105.289869 183 8402ft 155kts
26-Sep-23 09:38 36.371308 -105.295340 192 10455ft 186kts
26-Sep-23 09:39 36.319678 -105.278412 160 12320ft 222kts
26-Sep-23 09:40 36.262278 -105.246042 159 13913ft 239kts
26-Sep-23 09:41 36.196691 -105.228473 176 15296ft 229kts
26-Sep-23 09:42 36.135413 -105.207063 138 16827ft 241kts
26-Sep-23 09:43 36.144614 -105.138133 18 18263ft 244kts
26-Sep-23 09:44 36.205630 -105.164154 335 19628ft 242kts
26-Sep-23 09:45 36.267633 -105.198478 335 20961ft 246kts
26-Sep-23 09:46 36.330818 -105.233973 335 22294ft 251kts
26-Sep-23 09:47 36.395075 -105.270105 335 23540ft 256kts
26-Sep-23 09:48 36.460602 -105.307065 335 24513ft 260kts
26-Sep-23 09:49 36.527194 -105.344725 335 25258ft 265kts
26-Sep-23 09:50 36.594745 -105.382957 335 25894ft 269kts
26-Sep-23 09:51 36.663605 -105.422014 335 26299ft 279kts
26-Sep-23 09:52 36.736193 -105.463210 335 26234ft 292kts
26-Sep-23 09:53 36.810775 -105.505702 335 26218ft 297kts
26-Sep-23 09:54 36.886310 -105.548820 335 26212ft 299kts
26-Sep-23 09:55 36.961869 -105.592074 335 26202ft 298kts
26-Sep-23 09:56 37.037456 -105.635422 335 26188ft 298kts
26-Sep-23 09:57 37.112919 -105.678791 335 26185ft 298kts
26-Sep-23 09:58 37.188326 -105.722218 335 26267ft 298kts
26-Sep-23 09:59 37.263829 -105.765808 335 26349ft 298kts
26-Sep-23 10:00 37.337518 -105.812712 319 26432ft 298kts
26-Sep-23 10:01 37.375371 -105.903413 291 26449ft 297kts
26-Sep-23 10:02 37.404075 -106.000854 291 26433ft 297kts
26-Sep-23 10:03 37.432740 -106.098522 291 26363ft 298kts
26-Sep-23 10:04 37.461588 -106.197062 291 25949ft 308kts
26-Sep-23 10:05 37.491831 -106.300806 290 25073ft 321kts
26-Sep-23 10:06 37.522694 -106.407116 290 24210ft 324kts
26-Sep-23 10:07 37.553613 -106.514055 290 23195ft 325kts
26-Sep-23 10:08 37.584294 -106.620610 289 22130ft 323kts
26-Sep-23 10:09 37.596046 -106.732002 275 21036ft 320kts
26-Sep-23 10:10 37.603301 -106.841585 275 20035ft 305kts
26-Sep-23 10:11 37.610948 -106.946611 276 19119ft 298kts
26-Sep-23 10:12 37.620833 -107.049723 277 18268ft 291kts
26-Sep-23 10:13 37.630241 -107.147351 276 18246ft 273kts
26-Sep-23 10:14 37.639342 -107.241673 276 18240ft 270kts
26-Sep-23 10:15 37.646628 -107.335963 274 18251ft 271kts
26-Sep-23 10:16 37.653400 -107.430792 274 18257ft 270kts
26-Sep-23 10:17 37.660336 -107.525056 275 18250ft 271kts
26-Sep-23 10:18 37.667652 -107.619787 275 18245ft 269kts
26-Sep-23 10:19 37.675062 -107.713026 274 18282ft 267kts
26-Sep-23 10:20 37.682558 -107.806377 275 18317ft 267kts
26-Sep-23 10:21 37.689602 -107.890387 275 18333ft 265kts
26-Sep-23 10:22 37.697488 -107.983076 275 18319ft 265kts
26-Sep-23 10:23 37.706407 -108.075545 282 17611ft 270kts
26-Sep-23 10:24 37.756490 -108.138116 343 16178ft 249kts
26-Sep-23 10:25 37.824512 -108.140541 6 14865ft 247kts
26-Sep-23 10:26 37.889554 -108.113866 30 13230ft 251kts
26-Sep-23 10:27 37.941047 -108.061752 49 11871ft 226kts
26-Sep-23 10:28 37.972019 -108.001309 89 11072ft 176kts
26-Sep-23 10:29 37.962567 -107.949298 110 10156ft 148kts
26-Sep-23 10:30 37.952903 -107.904487 106 9031ft 77kts
26-Sep-23 10:31 37.953966 -107.903503 285 9054ft 0kts
26-Sep-23 10:32 37.953966 -107.903503 285 9054ft 0kts

Navigation Log

Ident Type
Flight plan parsing failed, navigation log unavailable